Terminal Aerodrome Forecast
Issued by NWS

Current Version | Previous Version | Text Only | Print | Product List | Glossary Off
Versions: 1 2 3 4 5 6 7 8 9 10 11 12 13 14 15 16 17 18 19 20

000
FTUS41 KRNK 141129 AAE
TAFLWB
TAF AMD
KLWB 141129Z 1411/1512 00000KT P6SM OVC008
     FM141600 25004KT P6SM SCT035
     FM142000 21004KT P6SM FEW050
     FM150600 00000KT 1/2SM FG VV002=

USA.gov is the U.S. government's official web portal to all federal, state and local government web resources and services.